sensor_id;sensor_type;location;lat;lon;timestamp;P1;durP1;ratioP1;P2;durP2;ratioP2
19347;SDS011;9810;52.480;9.806;2023-02-24T00:01:09;11.03;;;4.00;;
19347;SDS011;9810;52.480;9.806;2023-02-24T00:03:39;16.33;;;2.57;;
19347;SDS011;9810;52.480;9.806;2023-02-24T00:06:09;14.03;;;2.63;;
19347;SDS011;9810;52.480;9.806;2023-02-24T00:08:37;17.13;;;2.83;;
19347;SDS011;9810;52.480;9.806;2023-02-24T00:11:08;16.87;;;3.43;;
19347;SDS011;9810;52.480;9.806;2023-02-24T00:13:38;18.27;;;4.03;;
19347;SDS011;9810;52.480;9.806;2023-02-24T00:16:10;10.33;;;1.73;;
19347;SDS011;9810;52.480;9.806;2023-02-24T00:18:39;12.30;;;3.00;;
19347;SDS011;9810;52.480;9.806;2023-02-24T00:21:07;13.33;;;2.13;;
19347;SDS011;9810;52.480;9.806;2023-02-24T00:23:37;20.47;;;3.30;;
19347;SDS011;9810;52.480;9.806;2023-02-24T00:26:07;17.67;;;3.17;;
19347;SDS011;9810;52.480;9.806;2023-02-24T00:28:38;16.17;;;2.70;;
19347;SDS011;9810;52.480;9.806;2023-02-24T00:31:06;18.40;;;2.63;;
19347;SDS011;9810;52.480;9.806;2023-02-24T00:33:38;17.97;;;2.80;;
19347;SDS011;9810;52.480;9.806;2023-02-24T00:36:06;20.07;;;2.80;;
19347;SDS011;9810;52.480;9.806;2023-02-24T00:38:35;16.13;;;2.47;;
19347;SDS011;9810;52.480;9.806;2023-02-24T00:41:09;16.13;;;3.07;;
19347;SDS011;9810;52.480;9.806;2023-02-24T00:43:41;11.93;;;2.73;;
19347;SDS011;9810;52.480;9.806;2023-02-24T00:46:11;12.07;;;2.13;;
19347;SDS011;9810;52.480;9.806;2023-02-24T00:48:43;19.37;;;3.03;;
19347;SDS011;9810;52.480;9.806;2023-02-24T00:51:11;14.43;;;2.80;;
19347;SDS011;9810;52.480;9.806;2023-02-24T00:53:42;13.03;;;2.13;;
19347;SDS011;9810;52.480;9.806;2023-02-24T00:56:10;15.60;;;2.33;;
19347;SDS011;9810;52.480;9.806;2023-02-24T00:58:42;16.67;;;2.37;;
19347;SDS011;9810;52.480;9.806;2023-02-24T01:01:10;17.87;;;3.30;;
19347;SDS011;9810;52.480;9.806;2023-02-24T01:03:39;10.47;;;2.50;;
19347;SDS011;9810;52.480;9.806;2023-02-24T01:06:07;12.37;;;2.47;;
19347;SDS011;9810;52.480;9.806;2023-02-24T01:08:36;9.13;;;2.47;;
19347;SDS011;9810;52.480;9.806;2023-02-24T01:11:04;10.17;;;2.47;;
19347;SDS011;9810;52.480;9.806;2023-02-24T01:13:51;14.07;;;2.03;;
19347;SDS011;9810;52.480;9.806;2023-02-24T01:16:19;10.20;;;1.67;;
19347;SDS011;9810;52.480;9.806;2023-02-24T01:18:46;10.40;;;1.87;;
19347;SDS011;9810;52.480;9.806;2023-02-24T01:21:14;14.40;;;2.17;;
19347;SDS011;9810;52.480;9.806;2023-02-24T01:23:42;14.13;;;1.80;;
19347;SDS011;9810;52.480;9.806;2023-02-24T01:26:13;16.73;;;2.33;;
19347;SDS011;9810;52.480;9.806;2023-02-24T01:28:40;8.97;;;1.47;;
19347;SDS011;9810;52.480;9.806;2023-02-24T01:31:14;6.90;;;1.43;;
19347;SDS011;9810;52.480;9.806;2023-02-24T01:33:44;17.57;;;2.43;;
19347;SDS011;9810;52.480;9.806;2023-02-24T01:36:13;8.27;;;1.67;;
19347;SDS011;9810;52.480;9.806;2023-02-24T01:38:42;9.33;;;1.87;;
19347;SDS011;9810;52.480;9.806;2023-02-24T01:41:11;14.03;;;2.83;;
19347;SDS011;9810;52.480;9.806;2023-02-24T01:46:28;8.47;;;1.80;;
19347;SDS011;9810;52.480;9.806;2023-02-24T01:48:57;13.97;;;1.93;;
19347;SDS011;9810;52.480;9.806;2023-02-24T01:51:29;5.93;;;1.50;;
19347;SDS011;9810;52.480;9.806;2023-02-24T01:54:01;10.57;;;2.67;;
19347;SDS011;9810;52.480;9.806;2023-02-24T01:56:30;14.40;;;1.80;;
19347;SDS011;9810;52.480;9.806;2023-02-24T01:58:58;10.63;;;3.07;;
19347;SDS011;9810;52.480;9.806;2023-02-24T02:01:30;12.70;;;2.03;;
19347;SDS011;9810;52.480;9.806;2023-02-24T02:04:04;16.33;;;3.27;;
19347;SDS011;9810;52.480;9.806;2023-02-24T02:06:43;18.57;;;2.47;;
19347;SDS011;9810;52.480;9.806;2023-02-24T02:09:12;13.93;;;1.70;;
19347;SDS011;9810;52.480;9.806;2023-02-24T02:11:40;6.10;;;1.43;;
19347;SDS011;9810;52.480;9.806;2023-02-24T02:14:13;11.13;;;1.67;;
19347;SDS011;9810;52.480;9.806;2023-02-24T02:19:40;8.00;;;2.00;;
19347;SDS011;9810;52.480;9.806;2023-02-24T02:22:47;8.67;;;1.43;;
19347;SDS011;9810;52.480;9.806;2023-02-24T02:25:33;9.37;;;1.80;;
19347;SDS011;9810;52.480;9.806;2023-02-24T02:28:24;9.37;;;1.93;;
19347;SDS011;9810;52.480;9.806;2023-02-24T02:34:13;8.37;;;1.97;;
19347;SDS011;9810;52.480;9.806;2023-02-24T02:36:51;6.63;;;1.10;;
19347;SDS011;9810;52.480;9.806;2023-02-24T02:39:25;7.60;;;1.03;;
19347;SDS011;9810;52.480;9.806;2023-02-24T02:42:02;12.67;;;1.93;;
19347;SDS011;9810;52.480;9.806;2023-02-24T02:44:41;6.23;;;1.80;;
19347;SDS011;9810;52.480;9.806;2023-02-24T02:47:21;8.20;;;1.53;;
19347;SDS011;9810;52.480;9.806;2023-02-24T02:49:54;10.43;;;1.10;;
19347;SDS011;9810;52.480;9.806;2023-02-24T02:52:27;8.50;;;1.30;;
19347;SDS011;9810;52.480;9.806;2023-02-24T02:54:59;7.43;;;1.20;;
19347;SDS011;9810;52.480;9.806;2023-02-24T02:57:31;10.23;;;1.10;;
19347;SDS011;9810;52.480;9.806;2023-02-24T03:00:03;10.60;;;1.37;;
19347;SDS011;9810;52.480;9.806;2023-02-24T03:02:37;3.43;;;1.43;;
19347;SDS011;9810;52.480;9.806;2023-02-24T03:05:10;9.23;;;1.60;;
19347;SDS011;9810;52.480;9.806;2023-02-24T03:07:42;7.73;;;1.17;;
19347;SDS011;9810;52.480;9.806;2023-02-24T03:10:16;5.53;;;1.60;;
19347;SDS011;9810;52.480;9.806;2023-02-24T03:12:47;2.37;;;1.17;;
19347;SDS011;9810;52.480;9.806;2023-02-24T03:15:18;6.27;;;1.77;;
19347;SDS011;9810;52.480;9.806;2023-02-24T03:17:48;7.43;;;1.40;;
19347;SDS011;9810;52.480;9.806;2023-02-24T03:20:23;3.70;;;1.40;;
19347;SDS011;9810;52.480;9.806;2023-02-24T03:22:57;12.50;;;1.77;;
19347;SDS011;9810;52.480;9.806;2023-02-24T03:25:32;9.20;;;1.67;;
19347;SDS011;9810;52.480;9.806;2023-02-24T03:28:10;9.27;;;1.50;;
19347;SDS011;9810;52.480;9.806;2023-02-24T03:30:42;4.93;;;1.80;;
19347;SDS011;9810;52.480;9.806;2023-02-24T03:33:15;3.80;;;1.57;;
19347;SDS011;9810;52.480;9.806;2023-02-24T03:35:47;8.07;;;1.90;;
19347;SDS011;9810;52.480;9.806;2023-02-24T03:38:15;13.27;;;1.77;;
19347;SDS011;9810;52.480;9.806;2023-02-24T03:40:44;15.97;;;2.20;;
19347;SDS011;9810;52.480;9.806;2023-02-24T03:43:13;13.60;;;2.03;;
19347;SDS011;9810;52.480;9.806;2023-02-24T03:45:44;12.03;;;1.83;;
19347;SDS011;9810;52.480;9.806;2023-02-24T03:48:12;8.17;;;2.03;;
19347;SDS011;9810;52.480;9.806;2023-02-24T03:50:41;8.00;;;1.67;;
19347;SDS011;9810;52.480;9.806;2023-02-24T03:53:14;8.50;;;1.10;;
19347;SDS011;9810;52.480;9.806;2023-02-24T03:55:59;12.27;;;1.90;;
19347;SDS011;9810;52.480;9.806;2023-02-24T03:58:37;8.73;;;1.40;;
19347;SDS011;9810;52.480;9.806;2023-02-24T04:01:16;7.17;;;1.33;;
19347;SDS011;9810;52.480;9.806;2023-02-24T04:03:52;8.87;;;1.20;;
19347;SDS011;9810;52.480;9.806;2023-02-24T04:06:28;6.63;;;1.57;;
19347;SDS011;9810;52.480;9.806;2023-02-24T04:09:06;5.53;;;1.07;;
19347;SDS011;9810;52.480;9.806;2023-02-24T04:11:41;6.40;;;2.17;;
19347;SDS011;9810;52.480;9.806;2023-02-24T04:14:14;6.57;;;1.20;;
19347;SDS011;9810;52.480;9.806;2023-02-24T04:16:49;4.53;;;1.70;;
19347;SDS011;9810;52.480;9.806;2023-02-24T04:19:25;5.73;;;1.30;;
19347;SDS011;9810;52.480;9.806;2023-02-24T04:21:55;8.43;;;1.07;;
19347;SDS011;9810;52.480;9.806;2023-02-24T04:24:27;7.63;;;1.27;;
19347;SDS011;9810;52.480;9.806;2023-02-24T04:26:56;4.17;;;0.93;;
19347;SDS011;9810;52.480;9.806;2023-02-24T04:29:27;9.17;;;2.53;;
19347;SDS011;9810;52.480;9.806;2023-02-24T04:32:01;2.03;;;1.63;;
19347;SDS011;9810;52.480;9.806;2023-02-24T04:34:33;6.33;;;1.07;;
19347;SDS011;9810;52.480;9.806;2023-02-24T04:37:01;8.60;;;1.20;;
19347;SDS011;9810;52.480;9.806;2023-02-24T04:39:30;7.03;;;1.17;;
19347;SDS011;9810;52.480;9.806;2023-02-24T04:42:02;2.23;;;1.00;;
19347;SDS011;9810;52.480;9.806;2023-02-24T04:44:30;2.87;;;1.23;;
19347;SDS011;9810;52.480;9.806;2023-02-24T04:46:58;8.43;;;1.50;;
19347;SDS011;9810;52.480;9.806;2023-02-24T04:49:27;2.83;;;0.73;;
19347;SDS011;9810;52.480;9.806;2023-02-24T04:51:55;3.50;;;0.67;;
19347;SDS011;9810;52.480;9.806;2023-02-24T04:54:22;4.50;;;1.30;;
19347;SDS011;9810;52.480;9.806;2023-02-24T04:56:51;4.50;;;1.27;;
19347;SDS011;9810;52.480;9.806;2023-02-24T04:59:19;8.13;;;1.50;;
19347;SDS011;9810;52.480;9.806;2023-02-24T05:01:48;5.80;;;1.00;;
19347;SDS011;9810;52.480;9.806;2023-02-24T05:04:17;7.13;;;1.13;;
19347;SDS011;9810;52.480;9.806;2023-02-24T05:06:44;5.70;;;1.20;;
19347;SDS011;9810;52.480;9.806;2023-02-24T05:09:14;10.57;;;1.13;;
19347;SDS011;9810;52.480;9.806;2023-02-24T05:11:43;8.97;;;1.30;;
19347;SDS011;9810;52.480;9.806;2023-02-24T05:14:15;4.90;;;1.00;;
19347;SDS011;9810;52.480;9.806;2023-02-24T05:16:45;10.70;;;1.83;;
19347;SDS011;9810;52.480;9.806;2023-02-24T05:19:14;5.60;;;1.53;;
19347;SDS011;9810;52.480;9.806;2023-02-24T05:22:01;6.20;;;1.03;;
19347;SDS011;9810;52.480;9.806;2023-02-24T05:24:31;7.60;;;1.60;;
19347;SDS011;9810;52.480;9.806;2023-02-24T05:26:58;4.43;;;1.50;;
19347;SDS011;9810;52.480;9.806;2023-02-24T05:29:29;11.43;;;1.50;;
19347;SDS011;9810;52.480;9.806;2023-02-24T05:32:00;8.13;;;2.05;;
19347;SDS011;9810;52.480;9.806;2023-02-24T05:34:31;3.77;;;0.93;;
19347;SDS011;9810;52.480;9.806;2023-02-24T05:36:59;11.77;;;1.23;;
19347;SDS011;9810;52.480;9.806;2023-02-24T05:39:34;3.43;;;1.17;;
19347;SDS011;9810;52.480;9.806;2023-02-24T05:42:02;9.47;;;1.40;;
19347;SDS011;9810;52.480;9.806;2023-02-24T05:44:32;3.90;;;1.07;;
19347;SDS011;9810;52.480;9.806;2023-02-24T05:47:01;5.70;;;1.10;;
19347;SDS011;9810;52.480;9.806;2023-02-24T05:49:30;8.27;;;1.20;;
19347;SDS011;9810;52.480;9.806;2023-02-24T05:52:00;10.00;;;1.30;;
19347;SDS011;9810;52.480;9.806;2023-02-24T05:54:32;7.43;;;1.07;;
19347;SDS011;9810;52.480;9.806;2023-02-24T05:57:02;6.27;;;1.23;;
19347;SDS011;9810;52.480;9.806;2023-02-24T05:59:33;5.73;;;0.80;;
19347;SDS011;9810;52.480;9.806;2023-02-24T06:02:01;4.03;;;1.00;;
19347;SDS011;9810;52.480;9.806;2023-02-24T06:04:31;4.43;;;1.17;;
19347;SDS011;9810;52.480;9.806;2023-02-24T06:07:13;5.13;;;0.70;;
19347;SDS011;9810;52.480;9.806;2023-02-24T06:09:43;11.87;;;1.93;;
19347;SDS011;9810;52.480;9.806;2023-02-24T06:12:14;8.13;;;1.10;;
19347;SDS011;9810;52.480;9.806;2023-02-24T06:14:43;6.87;;;1.10;;
19347;SDS011;9810;52.480;9.806;2023-02-24T06:17:11;9.67;;;1.50;;
19347;SDS011;9810;52.480;9.806;2023-02-24T06:19:39;6.80;;;1.00;;
19347;SDS011;9810;52.480;9.806;2023-02-24T06:22:10;8.60;;;0.97;;
19347;SDS011;9810;52.480;9.806;2023-02-24T06:24:39;2.93;;;1.07;;
19347;SDS011;9810;52.480;9.806;2023-02-24T06:27:08;4.70;;;1.10;;
19347;SDS011;9810;52.480;9.806;2023-02-24T06:29:43;3.47;;;0.70;;
19347;SDS011;9810;52.480;9.806;2023-02-24T06:32:13;6.60;;;0.90;;
19347;SDS011;9810;52.480;9.806;2023-02-24T06:34:41;2.77;;;0.87;;
19347;SDS011;9810;52.480;9.806;2023-02-24T06:37:10;1.60;;;0.73;;
19347;SDS011;9810;52.480;9.806;2023-02-24T06:39:39;5.30;;;1.30;;
19347;SDS011;9810;52.480;9.806;2023-02-24T06:42:08;6.03;;;0.77;;
19347;SDS011;9810;52.480;9.806;2023-02-24T06:44:37;7.13;;;0.83;;
19347;SDS011;9810;52.480;9.806;2023-02-24T06:47:07;1.20;;;0.40;;
19347;SDS011;9810;52.480;9.806;2023-02-24T06:49:38;5.30;;;0.67;;
19347;SDS011;9810;52.480;9.806;2023-02-24T06:52:06;3.37;;;1.03;;
19347;SDS011;9810;52.480;9.806;2023-02-24T06:54:35;5.53;;;0.60;;
19347;SDS011;9810;52.480;9.806;2023-02-24T06:57:03;7.60;;;0.87;;
19347;SDS011;9810;52.480;9.806;2023-02-24T06:59:33;4.23;;;0.83;;
19347;SDS011;9810;52.480;9.806;2023-02-24T07:02:01;5.17;;;0.67;;
19347;SDS011;9810;52.480;9.806;2023-02-24T07:04:30;4.77;;;1.10;;
19347;SDS011;9810;52.480;9.806;2023-02-24T07:07:07;1.93;;;0.37;;
19347;SDS011;9810;52.480;9.806;2023-02-24T07:09:38;8.57;;;1.10;;
19347;SDS011;9810;52.480;9.806;2023-02-24T07:12:06;8.50;;;1.07;;
19347;SDS011;9810;52.480;9.806;2023-02-24T07:14:35;2.83;;;0.70;;
19347;SDS011;9810;52.480;9.806;2023-02-24T07:17:02;2.40;;;0.77;;
19347;SDS011;9810;52.480;9.806;2023-02-24T07:19:31;6.20;;;0.80;;
19347;SDS011;9810;52.480;9.806;2023-02-24T07:22:00;5.27;;;1.37;;
19347;SDS011;9810;52.480;9.806;2023-02-24T07:24:29;2.93;;;1.67;;
19347;SDS011;9810;52.480;9.806;2023-02-24T07:27:01;1.27;;;0.47;;
19347;SDS011;9810;52.480;9.806;2023-02-24T07:29:30;5.47;;;0.70;;
19347;SDS011;9810;52.480;9.806;2023-02-24T07:32:00;1.00;;;0.50;;
19347;SDS011;9810;52.480;9.806;2023-02-24T07:34:31;4.03;;;0.80;;
19347;SDS011;9810;52.480;9.806;2023-02-24T07:37:01;2.27;;;0.80;;
19347;SDS011;9810;52.480;9.806;2023-02-24T07:39:32;2.20;;;0.57;;
19347;SDS011;9810;52.480;9.806;2023-02-24T07:42:00;6.30;;;0.83;;
19347;SDS011;9810;52.480;9.806;2023-02-24T07:44:28;7.77;;;0.87;;
19347;SDS011;9810;52.480;9.806;2023-02-24T07:46:55;7.23;;;0.80;;
19347;SDS011;9810;52.480;9.806;2023-02-24T07:49:24;4.23;;;1.10;;
19347;SDS011;9810;52.480;9.806;2023-02-24T07:51:55;9.50;;;0.77;;
19347;SDS011;9810;52.480;9.806;2023-02-24T07:54:23;2.23;;;0.80;;
19347;SDS011;9810;52.480;9.806;2023-02-24T07:56:54;8.17;;;1.00;;
19347;SDS011;9810;52.480;9.806;2023-02-24T07:59:23;8.77;;;1.10;;
19347;SDS011;9810;52.480;9.806;2023-02-24T08:01:52;3.67;;;0.87;;
19347;SDS011;9810;52.480;9.806;2023-02-24T08:04:21;2.47;;;0.70;;
19347;SDS011;9810;52.480;9.806;2023-02-24T08:06:50;6.87;;;0.97;;
19347;SDS011;9810;52.480;9.806;2023-02-24T08:09:23;4.93;;;0.90;;
19347;SDS011;9810;52.480;9.806;2023-02-24T08:12:09;2.63;;;0.90;;
19347;SDS011;9810;52.480;9.806;2023-02-24T08:14:42;3.60;;;0.83;;
19347;SDS011;9810;52.480;9.806;2023-02-24T08:17:14;1.77;;;1.00;;
19347;SDS011;9810;52.480;9.806;2023-02-24T08:19:44;7.87;;;0.93;;
19347;SDS011;9810;52.480;9.806;2023-02-24T08:22:13;4.97;;;0.90;;
19347;SDS011;9810;52.480;9.806;2023-02-24T08:24:51;4.93;;;1.10;;
19347;SDS011;9810;52.480;9.806;2023-02-24T08:27:21;2.33;;;1.00;;
19347;SDS011;9810;52.480;9.806;2023-02-24T08:29:51;6.33;;;0.83;;
19347;SDS011;9810;52.480;9.806;2023-02-24T08:32:29;2.40;;;1.00;;
19347;SDS011;9810;52.480;9.806;2023-02-24T08:35:01;2.93;;;0.80;;
19347;SDS011;9810;52.480;9.806;2023-02-24T08:37:31;5.63;;;0.93;;
19347;SDS011;9810;52.480;9.806;2023-02-24T08:40:07;2.83;;;1.13;;
19347;SDS011;9810;52.480;9.806;2023-02-24T08:42:57;4.90;;;1.13;;
19347;SDS011;9810;52.480;9.806;2023-02-24T08:45:40;5.73;;;0.90;;
19347;SDS011;9810;52.480;9.806;2023-02-24T08:48:08;4.13;;;0.90;;
19347;SDS011;9810;52.480;9.806;2023-02-24T08:50:42;3.63;;;1.13;;
19347;SDS011;9810;52.480;9.806;2023-02-24T08:53:11;13.20;;;1.77;;
19347;SDS011;9810;52.480;9.806;2023-02-24T08:55:44;3.77;;;1.17;;
19347;SDS011;9810;52.480;9.806;2023-02-24T08:58:17;3.53;;;0.97;;
19347;SDS011;9810;52.480;9.806;2023-02-24T09:00:51;6.70;;;2.20;;
19347;SDS011;9810;52.480;9.806;2023-02-24T09:03:21;2.70;;;0.90;;
19347;SDS011;9810;52.480;9.806;2023-02-24T09:06:01;6.47;;;1.33;;
19347;SDS011;9810;52.480;9.806;2023-02-24T09:08:31;2.50;;;0.80;;
19347;SDS011;9810;52.480;9.806;2023-02-24T09:11:05;6.25;;;1.92;;
19347;SDS011;9810;52.480;9.806;2023-02-24T09:13:34;1.70;;;1.23;;
19347;SDS011;9810;52.480;9.806;2023-02-24T09:16:07;6.17;;;1.10;;
19347;SDS011;9810;52.480;9.806;2023-02-24T09:18:40;0.80;;;0.80;;
19347;SDS011;9810;52.480;9.806;2023-02-24T09:21:09;1.20;;;0.87;;
19347;SDS011;9810;52.480;9.806;2023-02-24T09:23:54;9.40;;;2.37;;
19347;SDS011;9810;52.480;9.806;2023-02-24T09:26:26;5.93;;;1.40;;
19347;SDS011;9810;52.480;9.806;2023-02-24T09:28:57;4.50;;;1.50;;
19347;SDS011;9810;52.480;9.806;2023-02-24T09:31:24;14.23;;;2.63;;
19347;SDS011;9810;52.480;9.806;2023-02-24T09:34:05;4.57;;;1.70;;
19347;SDS011;9810;52.480;9.806;2023-02-24T09:36:34;16.30;;;2.10;;
19347;SDS011;9810;52.480;9.806;2023-02-24T09:39:10;1.53;;;1.10;;
19347;SDS011;9810;52.480;9.806;2023-02-24T09:41:41;5.70;;;1.40;;
19347;SDS011;9810;52.480;9.806;2023-02-24T09:44:23;13.40;;;2.40;;
19347;SDS011;9810;52.480;9.806;2023-02-24T09:46:59;5.33;;;1.83;;
19347;SDS011;9810;52.480;9.806;2023-02-24T09:49:35;11.70;;;2.40;;
19347;SDS011;9810;52.480;9.806;2023-02-24T09:52:11;4.17;;;1.77;;
19347;SDS011;9810;52.480;9.806;2023-02-24T09:54:42;3.67;;;1.80;;
19347;SDS011;9810;52.480;9.806;2023-02-24T09:57:43;10.83;;;1.93;;
19347;SDS011;9810;52.480;9.806;2023-02-24T10:00:31;7.53;;;2.23;;
19347;SDS011;9810;52.480;9.806;2023-02-24T10:03:08;10.97;;;2.20;;
19347;SDS011;9810;52.480;9.806;2023-02-24T10:05:47;6.23;;;2.77;;
19347;SDS011;9810;52.480;9.806;2023-02-24T10:08:26;7.60;;;2.07;;
19347;SDS011;9810;52.480;9.806;2023-02-24T10:10:57;16.67;;;2.33;;
19347;SDS011;9810;52.480;9.806;2023-02-24T10:13:35;11.50;;;2.17;;
19347;SDS011;9810;52.480;9.806;2023-02-24T10:16:09;12.90;;;1.70;;
19347;SDS011;9810;52.480;9.806;2023-02-24T10:18:41;12.30;;;1.83;;
19347;SDS011;9810;52.480;9.806;2023-02-24T10:21:15;3.87;;;1.13;;
19347;SDS011;9810;52.480;9.806;2023-02-24T10:23:58;5.90;;;2.33;;
19347;SDS011;9810;52.480;9.806;2023-02-24T10:26:35;6.93;;;2.50;;
19347;SDS011;9810;52.480;9.806;2023-02-24T10:29:16;5.10;;;1.80;;
19347;SDS011;9810;52.480;9.806;2023-02-24T10:31:57;7.27;;;1.70;;
19347;SDS011;9810;52.480;9.806;2023-02-24T10:34:33;6.60;;;2.20;;
19347;SDS011;9810;52.480;9.806;2023-02-24T10:37:01;6.00;;;1.47;;
19347;SDS011;9810;52.480;9.806;2023-02-24T10:39:35;4.47;;;1.53;;
19347;SDS011;9810;52.480;9.806;2023-02-24T10:42:07;4.97;;;1.63;;
19347;SDS011;9810;52.480;9.806;2023-02-24T10:44:43;4.37;;;1.70;;
19347;SDS011;9810;52.480;9.806;2023-02-24T10:47:18;6.00;;;1.70;;
19347;SDS011;9810;52.480;9.806;2023-02-24T10:49:55;4.27;;;1.50;;
19347;SDS011;9810;52.480;9.806;2023-02-24T10:52:24;4.07;;;1.00;;
19347;SDS011;9810;52.480;9.806;2023-02-24T10:55:02;1.17;;;1.00;;
19347;SDS011;9810;52.480;9.806;2023-02-24T10:57:33;2.63;;;1.60;;
19347;SDS011;9810;52.480;9.806;2023-02-24T11:00:16;0.80;;;0.80;;
19347;SDS011;9810;52.480;9.806;2023-02-24T11:02:56;4.03;;;1.73;;
19347;SDS011;9810;52.480;9.806;2023-02-24T11:05:35;3.73;;;2.07;;
19347;SDS011;9810;52.480;9.806;2023-02-24T11:08:12;6.97;;;2.43;;
19347;SDS011;9810;52.480;9.806;2023-02-24T11:11:08;3.90;;;2.00;;
19347;SDS011;9810;52.480;9.806;2023-02-24T11:13:49;2.73;;;1.70;;
19347;SDS011;9810;52.480;9.806;2023-02-24T11:16:46;9.90;;;1.87;;
19347;SDS011;9810;52.480;9.806;2023-02-24T11:19:40;3.17;;;1.97;;
19347;SDS011;9810;52.480;9.806;2023-02-24T11:22:11;9.30;;;1.60;;
19347;SDS011;9810;52.480;9.806;2023-02-24T11:24:42;6.70;;;1.67;;
19347;SDS011;9810;52.480;9.806;2023-02-24T11:27:11;1.40;;;1.30;;
19347;SDS011;9810;52.480;9.806;2023-02-24T11:29:44;4.63;;;1.77;;
19347;SDS011;9810;52.480;9.806;2023-02-24T11:32:30;1.37;;;1.23;;
19347;SDS011;9810;52.480;9.806;2023-02-24T11:35:15;3.43;;;2.33;;
19347;SDS011;9810;52.480;9.806;2023-02-24T11:37:52;1.20;;;1.10;;
19347;SDS011;9810;52.480;9.806;2023-02-24T11:40:26;5.13;;;2.53;;
19347;SDS011;9810;52.480;9.806;2023-02-24T11:42:59;3.70;;;2.43;;
19347;SDS011;9810;52.480;9.806;2023-02-24T11:45:32;3.40;;;2.27;;
19347;SDS011;9810;52.480;9.806;2023-02-24T11:48:04;1.90;;;1.57;;
19347;SDS011;9810;52.480;9.806;2023-02-24T11:50:40;7.50;;;3.07;;
19347;SDS011;9810;52.480;9.806;2023-02-24T11:53:17;7.40;;;2.13;;
19347;SDS011;9810;52.480;9.806;2023-02-24T11:55:53;3.03;;;1.80;;
19347;SDS011;9810;52.480;9.806;2023-02-24T11:58:26;3.33;;;3.00;;
19347;SDS011;9810;52.480;9.806;2023-02-24T12:00:58;3.47;;;2.33;;
19347;SDS011;9810;52.480;9.806;2023-02-24T12:03:34;5.17;;;2.73;;
19347;SDS011;9810;52.480;9.806;2023-02-24T12:06:08;4.50;;;2.23;;
19347;SDS011;9810;52.480;9.806;2023-02-24T12:08:42;5.80;;;2.80;;
19347;SDS011;9810;52.480;9.806;2023-02-24T12:11:15;4.67;;;2.70;;
19347;SDS011;9810;52.480;9.806;2023-02-24T12:13:49;4.23;;;2.70;;
19347;SDS011;9810;52.480;9.806;2023-02-24T12:16:23;3.13;;;2.27;;
19347;SDS011;9810;52.480;9.806;2023-02-24T12:18:56;4.97;;;2.40;;
19347;SDS011;9810;52.480;9.806;2023-02-24T12:21:28;3.60;;;2.80;;
19347;SDS011;9810;52.480;9.806;2023-02-24T12:24:00;3.37;;;2.23;;
19347;SDS011;9810;52.480;9.806;2023-02-24T12:26:30;3.07;;;2.17;;
19347;SDS011;9810;52.480;9.806;2023-02-24T12:29:15;3.57;;;2.30;;
19347;SDS011;9810;52.480;9.806;2023-02-24T12:31:59;3.27;;;2.63;;
19347;SDS011;9810;52.480;9.806;2023-02-24T12:34:38;2.20;;;1.83;;
19347;SDS011;9810;52.480;9.806;2023-02-24T12:37:18;3.20;;;2.90;;
19347;SDS011;9810;52.480;9.806;2023-02-24T12:39:58;3.43;;;2.20;;
19347;SDS011;9810;52.480;9.806;2023-02-24T12:42:38;2.27;;;1.63;;
19347;SDS011;9810;52.480;9.806;2023-02-24T12:45:13;5.57;;;2.67;;
19347;SDS011;9810;52.480;9.806;2023-02-24T12:47:50;2.17;;;1.97;;
19347;SDS011;9810;52.480;9.806;2023-02-24T12:50:32;1.80;;;1.70;;
19347;SDS011;9810;52.480;9.806;2023-02-24T12:53:11;3.40;;;2.93;;
19347;SDS011;9810;52.480;9.806;2023-02-24T12:55:49;4.83;;;2.87;;
19347;SDS011;9810;52.480;9.806;2023-02-24T12:58:27;3.20;;;2.60;;
19347;SDS011;9810;52.480;9.806;2023-02-24T13:01:01;4.97;;;2.80;;
19347;SDS011;9810;52.480;9.806;2023-02-24T13:03:39;2.57;;;2.37;;
19347;SDS011;9810;52.480;9.806;2023-02-24T13:06:24;3.20;;;2.73;;
19347;SDS011;9810;52.480;9.806;2023-02-24T13:09:02;3.10;;;2.80;;
19347;SDS011;9810;52.480;9.806;2023-02-24T13:11:38;7.50;;;2.57;;
19347;SDS011;9810;52.480;9.806;2023-02-24T13:14:13;3.43;;;2.97;;
19347;SDS011;9810;52.480;9.806;2023-02-24T13:16:46;4.53;;;3.00;;
19347;SDS011;9810;52.480;9.806;2023-02-24T13:19:17;3.97;;;3.10;;
19347;SDS011;9810;52.480;9.806;2023-02-24T13:21:58;4.07;;;2.87;;
19347;SDS011;9810;52.480;9.806;2023-02-24T13:24:30;4.67;;;3.60;;
19347;SDS011;9810;52.480;9.806;2023-02-24T13:27:05;2.90;;;2.60;;
19347;SDS011;9810;52.480;9.806;2023-02-24T13:29:43;4.30;;;3.83;;
19347;SDS011;9810;52.480;9.806;2023-02-24T13:32:22;7.70;;;4.77;;
19347;SDS011;9810;52.480;9.806;2023-02-24T13:34:56;5.17;;;4.63;;
19347;SDS011;9810;52.480;9.806;2023-02-24T13:37:27;6.43;;;4.70;;
19347;SDS011;9810;52.480;9.806;2023-02-24T13:39:56;5.93;;;4.33;;
19347;SDS011;9810;52.480;9.806;2023-02-24T13:42:24;7.97;;;5.20;;
19347;SDS011;9810;52.480;9.806;2023-02-24T13:44:53;5.33;;;4.20;;
19347;SDS011;9810;52.480;9.806;2023-02-24T13:50:26;4.13;;;3.00;;
19347;SDS011;9810;52.480;9.806;2023-02-24T13:53:12;4.60;;;4.03;;
19347;SDS011;9810;52.480;9.806;2023-02-24T13:55:51;6.80;;;4.57;;
19347;SDS011;9810;52.480;9.806;2023-02-24T13:58:36;2.93;;;2.03;;
19347;SDS011;9810;52.480;9.806;2023-02-24T14:01:14;4.83;;;4.27;;
19347;SDS011;9810;52.480;9.806;2023-02-24T14:03:44;6.07;;;3.37;;
19347;SDS011;9810;52.480;9.806;2023-02-24T14:06:30;4.33;;;3.90;;
19347;SDS011;9810;52.480;9.806;2023-02-24T14:09:03;8.00;;;4.00;;
19347;SDS011;9810;52.480;9.806;2023-02-24T14:11:33;4.67;;;3.13;;
19347;SDS011;9810;52.480;9.806;2023-02-24T14:14:02;7.63;;;3.50;;
19347;SDS011;9810;52.480;9.806;2023-02-24T14:16:31;6.47;;;3.73;;
19347;SDS011;9810;52.480;9.806;2023-02-24T14:19:03;4.33;;;2.97;;
19347;SDS011;9810;52.480;9.806;2023-02-24T14:21:44;6.17;;;3.47;;
19347;SDS011;9810;52.480;9.806;2023-02-24T14:24:15;3.47;;;2.90;;
19347;SDS011;9810;52.480;9.806;2023-02-24T14:26:44;7.23;;;4.53;;
19347;SDS011;9810;52.480;9.806;2023-02-24T14:29:15;4.20;;;3.70;;
19347;SDS011;9810;52.480;9.806;2023-02-24T14:31:46;2.90;;;1.83;;
19347;SDS011;9810;52.480;9.806;2023-02-24T14:34:15;4.50;;;2.30;;
19347;SDS011;9810;52.480;9.806;2023-02-24T14:36:45;6.00;;;2.70;;
19347;SDS011;9810;52.480;9.806;2023-02-24T14:39:16;10.80;;;4.03;;
19347;SDS011;9810;52.480;9.806;2023-02-24T14:41:45;8.20;;;3.60;;
19347;SDS011;9810;52.480;9.806;2023-02-24T14:44:18;4.73;;;3.60;;
19347;SDS011;9810;52.480;9.806;2023-02-24T14:46:49;5.87;;;3.80;;
19347;SDS011;9810;52.480;9.806;2023-02-24T14:49:19;6.73;;;3.50;;
19347;SDS011;9810;52.480;9.806;2023-02-24T14:51:49;6.87;;;4.10;;
19347;SDS011;9810;52.480;9.806;2023-02-24T14:54:23;6.07;;;4.00;;
19347;SDS011;9810;52.480;9.806;2023-02-24T14:57:01;6.87;;;3.67;;
19347;SDS011;9810;52.480;9.806;2023-02-24T14:59:29;8.17;;;4.53;;
19347;SDS011;9810;52.480;9.806;2023-02-24T15:01:59;4.83;;;3.37;;
19347;SDS011;9810;52.480;9.806;2023-02-24T15:04:32;4.87;;;3.47;;
19347;SDS011;9810;52.480;9.806;2023-02-24T15:07:02;8.67;;;3.60;;
19347;SDS011;9810;52.480;9.806;2023-02-24T15:09:34;5.07;;;3.70;;
19347;SDS011;9810;52.480;9.806;2023-02-24T15:12:10;5.97;;;3.70;;
19347;SDS011;9810;52.480;9.806;2023-02-24T15:14:46;7.17;;;3.57;;
19347;SDS011;9810;52.480;9.806;2023-02-24T15:17:15;2.60;;;2.40;;
19347;SDS011;9810;52.480;9.806;2023-02-24T15:19:45;3.50;;;3.00;;
19347;SDS011;9810;52.480;9.806;2023-02-24T15:22:19;6.93;;;2.80;;
19347;SDS011;9810;52.480;9.806;2023-02-24T15:24:50;5.63;;;3.03;;
19347;SDS011;9810;52.480;9.806;2023-02-24T15:27:21;4.27;;;2.03;;
19347;SDS011;9810;52.480;9.806;2023-02-24T15:30:00;9.63;;;3.10;;
19347;SDS011;9810;52.480;9.806;2023-02-24T15:32:32;8.27;;;2.83;;
19347;SDS011;9810;52.480;9.806;2023-02-24T15:35:01;8.57;;;4.67;;
19347;SDS011;9810;52.480;9.806;2023-02-24T15:37:32;4.23;;;3.03;;
19347;SDS011;9810;52.480;9.806;2023-02-24T15:40:14;14.80;;;4.17;;
19347;SDS011;9810;52.480;9.806;2023-02-24T15:42:48;7.10;;;4.67;;
19347;SDS011;9810;52.480;9.806;2023-02-24T15:45:24;2.67;;;2.40;;